createdAt,value
2023-02-22T00:00:19.597Z,26.05
2023-02-22T00:02:29.135Z,26.65
2023-02-22T00:04:35.630Z,26.52
2023-02-22T00:06:40.527Z,24.58
2023-02-22T00:08:43.985Z,24.40
2023-02-22T00:10:47.390Z,24.55
2023-02-22T00:12:51.190Z,25.90
2023-02-22T00:14:54.864Z,24.25
2023-02-22T00:16:59.911Z,25.40
2023-02-22T00:19:03.522Z,24.80
2023-02-22T00:21:10.696Z,24.65
2023-02-22T00:23:19.057Z,24.58
2023-02-22T00:25:24.869Z,24.17
2023-02-22T00:27:28.299Z,23.45
2023-02-22T00:29:34.400Z,24.40
2023-02-22T00:31:39.343Z,24.50
2023-02-22T00:33:43.383Z,24.70
2023-02-22T00:35:47.351Z,24.05
2023-02-22T00:37:51.331Z,26.35
2023-02-22T00:39:56.009Z,25.63
2023-02-22T00:41:59.215Z,25.00
2023-02-22T00:44:02.666Z,26.83
2023-02-22T00:46:06.261Z,25.33
2023-02-22T00:48:10.386Z,25.25
2023-02-22T00:50:13.858Z,25.35
2023-02-22T00:52:17.335Z,25.25
2023-02-22T00:54:20.776Z,23.42
2023-02-22T00:56:25.376Z,23.20
2023-02-22T00:58:28.912Z,23.65
2023-02-22T01:00:37.230Z,24.60
2023-02-22T01:02:40.638Z,24.58
2023-02-22T01:04:44.161Z,24.23
2023-02-22T01:06:48.295Z,25.40
2023-02-22T01:08:51.513Z,24.02
2023-02-22T01:10:54.750Z,25.65
2023-02-22T01:13:01.041Z,24.88
2023-02-22T01:15:10.374Z,25.30
2023-02-22T01:17:13.550Z,24.02
2023-02-22T01:19:16.705Z,26.27
2023-02-22T01:21:20.182Z,23.88
2023-02-22T01:23:23.437Z,28.20
2023-02-22T01:25:28.928Z,26.38
2023-02-22T01:27:32.313Z,28.10
2023-02-22T01:29:36.880Z,30.67
2023-02-22T01:31:44.121Z,30.63
2023-02-22T01:33:48.289Z,31.00
2023-02-22T01:35:52.238Z,32.95
2023-02-22T01:37:55.588Z,31.40
2023-02-22T01:39:58.863Z,32.45
2023-02-22T01:42:02.118Z,33.00
2023-02-22T01:44:20.486Z,33.15
2023-02-22T01:46:27.268Z,31.63
2023-02-22T01:48:39.521Z,30.88
2023-02-22T01:50:46.354Z,30.92
2023-02-22T01:52:50.194Z,30.02
2023-02-22T01:54:58.056Z,29.13
2023-02-22T01:57:07.662Z,29.92
2023-02-22T01:59:13.296Z,30.25
2023-02-22T02:01:17.920Z,29.25
2023-02-22T02:03:27.559Z,31.45
2023-02-22T02:05:34.346Z,29.60
2023-02-22T02:07:39.350Z,30.58
2023-02-22T02:09:49.134Z,27.75
2023-02-22T02:11:52.536Z,28.48
2023-02-22T02:13:59.132Z,28.33
2023-02-22T02:16:04.260Z,28.05
2023-02-22T02:18:12.017Z,26.38
2023-02-22T02:20:23.574Z,27.38
2023-02-22T02:22:47.692Z,28.73
2023-02-22T02:25:26.658Z,27.83
2023-02-22T02:27:40.099Z,28.13
2023-02-22T02:30:25.946Z,27.38
2023-02-22T02:32:53.375Z,29.85
2023-02-22T02:35:02.116Z,28.92
2023-02-22T02:37:13.604Z,28.80
2023-02-22T02:41:29.282Z,27.42
2023-02-22T02:43:38.224Z,27.85
2023-02-22T02:45:48.517Z,27.75
2023-02-22T02:47:58.698Z,27.80
2023-02-22T02:50:09.932Z,29.45
2023-02-22T02:52:14.529Z,29.58
2023-02-22T02:54:19.032Z,29.33
2023-02-22T02:56:23.461Z,27.40
2023-02-22T02:58:26.891Z,29.00
2023-02-22T03:00:39.331Z,29.55
2023-02-22T03:02:50.625Z,30.30
2023-02-22T03:05:12.911Z,31.98
2023-02-22T03:07:34.571Z,33.80
2023-02-22T03:09:48.034Z,34.67
2023-02-22T03:12:03.382Z,34.28
2023-02-22T03:14:17.825Z,33.92
2023-02-22T03:16:30.259Z,34.60
2023-02-22T03:18:44.279Z,33.15
2023-02-22T03:20:54.545Z,35.08
2023-02-22T03:23:04.914Z,34.95
2023-02-22T03:25:11.501Z,35.78
2023-02-22T03:27:21.827Z,35.00
2023-02-22T03:29:35.569Z,35.28
2023-02-22T03:31:45.159Z,32.53
2023-02-22T03:33:54.432Z,31.65
2023-02-22T03:36:03.527Z,30.10
2023-02-22T03:38:16.069Z,30.15
2023-02-22T03:40:26.552Z,30.27
2023-02-22T03:44:42.521Z,30.70
2023-02-22T03:46:47.484Z,30.13
2023-02-22T03:48:55.296Z,30.80
2023-02-22T03:51:04.485Z,29.63
2023-02-22T03:53:08.749Z,29.45
2023-02-22T03:55:17.797Z,28.60
2023-02-22T03:57:26.887Z,30.38
2023-02-22T03:59:39.140Z,29.88
2023-02-22T04:01:43.105Z,28.90
2023-02-22T04:03:46.450Z,29.13
2023-02-22T04:05:50.580Z,29.35
2023-02-22T04:07:56.544Z,31.90
2023-02-22T04:09:59.842Z,31.80
2023-02-22T04:12:04.192Z,32.75
2023-02-22T04:14:13.114Z,31.65
2023-02-22T04:16:16.633Z,31.73
2023-02-22T04:18:20.594Z,31.23
2023-02-22T04:20:26.298Z,31.27
2023-02-22T04:22:49.758Z,30.33
2023-02-22T04:24:54.594Z,32.08
2023-02-22T04:26:58.544Z,32.40
2023-02-22T04:29:02.338Z,31.63
2023-02-22T04:31:12.309Z,30.75
2023-02-22T04:33:17.119Z,30.92
2023-02-22T04:35:20.409Z,31.67
2023-02-22T04:37:23.682Z,32.67
2023-02-22T04:39:27.369Z,31.55
2023-02-22T04:41:32.339Z,33.15
2023-02-22T04:43:35.572Z,31.73
2023-02-22T04:45:53.284Z,31.58
2023-02-22T04:47:56.532Z,30.42
2023-02-22T04:50:00.437Z,32.65
2023-02-22T04:52:03.993Z,31.98
2023-02-22T04:54:11.435Z,30.98
2023-02-22T04:56:18.906Z,29.67
2023-02-22T04:58:24.493Z,29.30
2023-02-22T05:00:27.852Z,30.25
2023-02-22T05:02:35.929Z,30.27
2023-02-22T05:04:40.108Z,29.27
2023-02-22T05:06:43.283Z,28.65
2023-02-22T05:08:46.438Z,28.73
2023-02-22T05:10:49.593Z,29.10
2023-02-22T05:12:52.857Z,28.30
2023-02-22T05:14:57.463Z,28.67
2023-02-22T05:17:01.299Z,28.95
2023-02-22T05:19:04.614Z,27.20
2023-02-22T05:21:08.009Z,29.48
2023-02-22T05:23:11.245Z,30.45
2023-02-22T05:25:14.469Z,30.00
2023-02-22T05:27:17.655Z,31.00
2023-02-22T05:29:21.431Z,28.83
2023-02-22T05:31:26.098Z,30.55
2023-02-22T05:33:29.851Z,30.90
2023-02-22T05:35:33.675Z,30.85
2023-02-22T05:37:37.262Z,30.27
2023-02-22T05:39:40.452Z,30.75
2023-02-22T05:41:43.698Z,32.25
2023-02-22T05:43:46.934Z,31.95
2023-02-22T05:45:50.269Z,33.25
2023-02-22T05:47:55.940Z,31.95
2023-02-22T05:49:59.313Z,32.78
2023-02-22T05:52:02.578Z,32.80
2023-02-22T05:54:06.006Z,34.00
2023-02-22T05:56:09.498Z,32.88
2023-02-22T05:58:12.722Z,33.55
2023-02-22T06:00:19.137Z,33.00
2023-02-22T06:02:22.464Z,34.08
2023-02-22T06:04:27.907Z,33.45
2023-02-22T06:06:31.189Z,33.90
2023-02-22T06:08:34.540Z,34.88
2023-02-22T06:10:37.822Z,33.85
2023-02-22T06:12:41.700Z,33.47
2023-02-22T06:14:46.040Z,34.13
2023-02-22T06:16:53.894Z,33.80
2023-02-22T06:18:57.119Z,33.88
2023-02-22T06:21:02.126Z,33.92
2023-02-22T06:23:05.383Z,35.45
2023-02-22T06:25:10.538Z,35.25
2023-02-22T06:27:13.990Z,33.55
2023-02-22T06:29:17.275Z,35.97
2023-02-22T06:31:20.751Z,34.92
2023-02-22T06:33:24.117Z,35.17
2023-02-22T06:35:27.551Z,35.65
2023-02-22T06:37:32.174Z,35.45
2023-02-22T06:39:35.408Z,35.33
2023-02-22T06:41:38.666Z,33.90
2023-02-22T06:43:41.877Z,36.17
2023-02-22T06:45:45.295Z,34.25
2023-02-22T06:47:50.165Z,34.88
2023-02-22T06:49:57.221Z,34.65
2023-02-22T06:52:00.458Z,34.25
2023-02-22T06:54:06.166Z,34.75
2023-02-22T06:56:09.436Z,34.08
2023-02-22T06:58:12.631Z,35.03
2023-02-22T07:00:18.792Z,34.78
2023-02-22T07:02:22.120Z,33.72
2023-02-22T07:04:25.338Z,32.60
2023-02-22T07:06:28.684Z,32.88
2023-02-22T07:08:32.103Z,32.78
2023-02-22T07:10:38.385Z,33.55
2023-02-22T07:12:41.621Z,32.88
2023-02-22T07:14:44.849Z,32.55
2023-02-22T07:16:48.092Z,32.83
2023-02-22T07:18:51.293Z,32.47
2023-02-22T07:20:54.735Z,32.88
2023-02-22T07:22:57.905Z,30.92
2023-02-22T07:25:01.377Z,34.28
2023-02-22T07:27:06.250Z,33.15
2023-02-22T07:29:11.355Z,33.15
2023-02-22T07:31:15.221Z,31.80
2023-02-22T07:33:18.602Z,32.15
2023-02-22T07:35:24.145Z,32.03
2023-02-22T07:37:27.516Z,31.65
2023-02-22T07:39:31.332Z,31.75
2023-02-22T07:41:34.507Z,31.35
2023-02-22T07:43:39.093Z,32.67
2023-02-22T07:45:42.717Z,30.33
2023-02-22T07:47:47.583Z,33.17
2023-02-22T07:49:50.801Z,31.42
2023-02-22T07:51:54.153Z,31.55
2023-02-22T07:53:57.390Z,29.83
2023-02-22T07:56:02.829Z,30.48
2023-02-22T07:58:08.369Z,29.73
2023-02-22T08:00:16.602Z,28.83
2023-02-22T08:02:27.752Z,30.25
2023-02-22T08:04:30.926Z,29.50
2023-02-22T08:06:34.150Z,28.33
2023-02-22T08:08:37.319Z,29.63
2023-02-22T08:10:40.508Z,29.15
2023-02-22T08:12:43.864Z,28.55
2023-02-22T08:14:47.103Z,30.02
2023-02-22T08:16:51.678Z,28.67
2023-02-22T08:18:54.930Z,29.73
2023-02-22T08:20:58.251Z,29.05
2023-02-22T08:23:01.501Z,28.85
2023-02-22T08:25:04.786Z,28.25
2023-02-22T08:27:08.692Z,29.05
2023-02-22T08:29:11.983Z,28.92
2023-02-22T08:31:15.459Z,26.92
2023-02-22T08:33:20.532Z,27.08
2023-02-22T08:35:24.260Z,26.92
2023-02-22T08:37:27.656Z,27.10
2023-02-22T08:39:30.852Z,26.10
2023-02-22T08:41:34.083Z,26.83
2023-02-22T08:43:37.353Z,26.27
2023-02-22T08:45:40.733Z,26.77
2023-02-22T08:47:44.692Z,26.23
2023-02-22T08:49:49.386Z,26.25
2023-02-22T08:51:52.564Z,26.20
2023-02-22T08:53:56.134Z,26.00
2023-02-22T08:55:59.338Z,24.25
2023-02-22T08:58:03.929Z,25.02
2023-02-22T09:00:08.696Z,24.17
2023-02-22T09:02:16.942Z,24.95
2023-02-22T09:04:20.163Z,23.35
2023-02-22T09:06:25.219Z,24.20
2023-02-22T09:08:28.953Z,22.20
2023-02-22T09:10:34.520Z,23.05
2023-02-22T09:12:37.826Z,24.08
2023-02-22T09:14:42.972Z,23.88
2023-02-22T09:16:46.438Z,24.33
2023-02-22T09:18:49.732Z,23.23
2023-02-22T09:20:53.467Z,23.65
2023-02-22T09:22:58.521Z,23.08
2023-02-22T09:25:11.249Z,21.38
2023-02-22T09:27:21.889Z,21.85
2023-02-22T09:29:27.334Z,24.85
2023-02-22T09:31:30.609Z,28.83
2023-02-22T09:33:33.859Z,30.10
2023-02-22T09:35:38.014Z,28.58
2023-02-22T09:37:44.619Z,25.55
2023-02-22T09:39:49.471Z,25.85
2023-02-22T09:41:59.328Z,26.08
2023-02-22T09:44:15.483Z,27.15
2023-02-22T09:46:24.421Z,25.05
2023-02-22T09:48:27.950Z,25.17
2023-02-22T09:50:35.714Z,26.60
2023-02-22T09:52:55.521Z,27.13
2023-02-22T09:55:10.362Z,24.60
2023-02-22T09:57:20.162Z,24.08
2023-02-22T09:59:27.039Z,24.23
2023-02-22T10:01:34.993Z,24.92
2023-02-22T10:03:48.822Z,23.85
2023-02-22T10:06:00.517Z,22.58
2023-02-22T10:08:06.184Z,25.45
2023-02-22T10:10:18.170Z,23.95
2023-02-22T10:12:30.751Z,22.23
2023-02-22T10:14:50.012Z,21.58
2023-02-22T10:16:59.482Z,19.52
2023-02-22T10:19:18.462Z,19.80
2023-02-22T10:21:42.822Z,19.92
2023-02-22T10:23:55.743Z,20.48
2023-02-22T10:26:13.539Z,20.52
2023-02-22T10:28:22.746Z,19.52
2023-02-22T10:30:31.476Z,19.85
2023-02-22T10:32:45.451Z,19.73
2023-02-22T10:34:51.543Z,20.10
2023-02-22T10:36:58.957Z,19.75
2023-02-22T10:39:13.363Z,19.85
2023-02-22T10:41:25.006Z,19.70
2023-02-22T10:43:28.580Z,19.88
2023-02-22T10:45:33.791Z,19.55
2023-02-22T10:47:37.757Z,19.73
2023-02-22T10:49:44.444Z,19.55
2023-02-22T10:51:49.472Z,22.63
2023-02-22T10:54:00.791Z,22.85
2023-02-22T10:56:14.242Z,22.27
2023-02-22T10:58:19.394Z,21.60
2023-02-22T11:00:37.310Z,21.45
2023-02-22T11:02:40.650Z,21.13
2023-02-22T11:04:49.605Z,22.58
2023-02-22T11:07:09.024Z,22.15
2023-02-22T11:09:15.405Z,21.33
2023-02-22T11:11:28.893Z,20.27
2023-02-22T11:13:35.149Z,21.15
2023-02-22T11:15:38.417Z,20.20
2023-02-22T11:17:42.179Z,20.77
2023-02-22T11:19:48.572Z,21.15
2023-02-22T11:21:54.283Z,19.13
2023-02-22T11:24:05.107Z,18.65
2023-02-22T11:26:11.335Z,19.30
2023-02-22T11:28:20.775Z,18.42
2023-02-22T11:30:31.741Z,18.38
2023-02-22T11:32:36.549Z,18.98
2023-02-22T11:34:42.719Z,18.98
2023-02-22T11:36:46.800Z,18.50
2023-02-22T11:38:58.527Z,18.42
2023-02-22T11:41:17.360Z,17.88
2023-02-22T11:43:21.860Z,17.48
2023-02-22T11:45:25.809Z,17.25
2023-02-22T11:47:30.565Z,16.50
2023-02-22T11:49:35.783Z,16.40
2023-02-22T11:52:06.716Z,16.85
2023-02-22T11:54:31.287Z,16.10
2023-02-22T11:56:40.555Z,16.08
2023-02-22T11:58:49.425Z,16.25
2023-02-22T12:00:59.837Z,17.77
2023-02-22T12:03:29.372Z,17.00
2023-02-22T12:05:45.776Z,18.42
2023-02-22T12:08:13.779Z,17.95
2023-02-22T12:10:33.016Z,17.90
2023-02-22T12:12:49.279Z,18.40
2023-02-22T12:15:00.350Z,18.27
2023-02-22T12:17:19.609Z,18.13
2023-02-22T12:19:31.330Z,18.38
2023-02-22T12:21:37.477Z,18.15
2023-02-22T12:23:46.161Z,18.95
2023-02-22T12:25:58.886Z,17.83
2023-02-22T12:28:23.684Z,18.48
2023-02-22T12:30:31.384Z,18.10
2023-02-22T12:32:41.777Z,17.00
2023-02-22T12:34:50.010Z,15.93
2023-02-22T12:36:57.967Z,16.65
2023-02-22T12:39:07.397Z,16.60
2023-02-22T12:41:18.451Z,15.20
2023-02-22T12:43:28.709Z,16.42
2023-02-22T12:45:38.134Z,14.73
2023-02-22T12:47:56.689Z,15.50
2023-02-22T12:50:06.768Z,14.93
2023-02-22T12:52:21.843Z,15.73
2023-02-22T12:54:43.217Z,16.17
2023-02-22T12:56:51.932Z,15.80
2023-02-22T12:59:02.921Z,15.13
2023-02-22T13:01:13.599Z,16.42
2023-02-22T13:03:31.807Z,15.80
2023-02-22T13:05:40.767Z,14.00
2023-02-22T13:07:53.594Z,13.75
2023-02-22T13:10:15.473Z,13.68
2023-02-22T13:12:22.906Z,13.13
2023-02-22T13:14:39.869Z,12.77
2023-02-22T13:16:52.610Z,13.90
2023-02-22T13:19:04.548Z,13.63
2023-02-22T13:21:17.890Z,13.30
2023-02-22T13:23:37.315Z,13.95
2023-02-22T13:25:46.756Z,13.43
2023-02-22T13:27:54.536Z,12.88
2023-02-22T13:30:00.155Z,13.18
2023-02-22T13:32:19.543Z,13.43
2023-02-22T13:34:51.563Z,13.30
2023-02-22T13:37:13.617Z,13.27
2023-02-22T13:39:44.142Z,13.55
2023-02-22T13:41:56.256Z,13.40
2023-02-22T13:44:24.280Z,11.65
2023-02-22T13:47:02.961Z,12.48
2023-02-22T13:49:19.980Z,12.23
2023-02-22T13:51:51.679Z,13.15
2023-02-22T13:53:59.936Z,12.57
2023-02-22T13:56:03.427Z,14.10
2023-02-22T13:58:08.777Z,13.10
2023-02-22T14:00:24.436Z,14.25
2023-02-22T14:02:36.784Z,13.43
2023-02-22T14:04:41.725Z,13.57
2023-02-22T14:06:45.857Z,13.98
2023-02-22T14:08:49.191Z,12.90
2023-02-22T14:10:56.283Z,13.52
2023-02-22T14:13:05.944Z,13.35
2023-02-22T14:15:32.694Z,13.48
2023-02-22T14:17:36.062Z,13.10
2023-02-22T14:19:39.577Z,13.38
2023-02-22T14:22:02.105Z,12.73
2023-02-22T14:24:10.993Z,13.02
2023-02-22T14:26:19.506Z,12.85
2023-02-22T14:28:40.653Z,13.13
2023-02-22T14:30:44.042Z,12.87
2023-02-22T14:32:49.215Z,12.60
2023-02-22T14:34:58.088Z,12.85
2023-02-22T14:37:05.878Z,12.85
2023-02-22T14:39:20.080Z,13.02
2023-02-22T14:41:28.795Z,13.00
2023-02-22T14:43:36.873Z,12.73
2023-02-22T14:45:47.272Z,12.82
2023-02-22T14:48:01.232Z,12.13
2023-02-22T14:50:07.945Z,12.07
2023-02-22T14:52:22.605Z,12.63
2023-02-22T14:54:31.656Z,12.63
2023-02-22T14:56:44.197Z,12.02
2023-02-22T14:58:50.774Z,12.02
2023-02-22T15:00:56.949Z,11.82
2023-02-22T15:03:01.609Z,13.35
2023-02-22T15:05:05.274Z,12.57
2023-02-22T15:07:20.584Z,12.80
2023-02-22T15:09:29.184Z,12.68
2023-02-22T15:11:33.662Z,12.95
2023-02-22T15:13:39.232Z,12.45
2023-02-22T15:15:46.935Z,13.05
2023-02-22T15:17:56.952Z,13.25
2023-02-22T15:20:00.296Z,13.80
2023-02-22T15:22:04.160Z,13.73
2023-02-22T15:24:09.068Z,13.80
2023-02-22T15:26:23.944Z,13.85
2023-02-22T15:28:30.965Z,13.43
2023-02-22T15:30:35.782Z,13.55
2023-02-22T15:32:53.284Z,13.45
2023-02-22T15:35:14.396Z,12.75
2023-02-22T15:37:25.447Z,13.63
2023-02-22T15:39:33.181Z,13.18
2023-02-22T15:41:37.030Z,13.48
2023-02-22T15:43:40.817Z,13.13
2023-02-22T15:45:46.796Z,13.50
2023-02-22T15:47:51.127Z,14.15
2023-02-22T15:50:17.213Z,13.38
2023-02-22T15:52:25.015Z,13.88
2023-02-22T15:54:28.338Z,13.95
2023-02-22T15:56:35.971Z,13.32
2023-02-22T15:58:40.137Z,14.80
2023-02-22T16:00:48.825Z,13.93
2023-02-22T16:02:53.018Z,14.30
2023-02-22T16:05:00.809Z,14.20
2023-02-22T16:07:16.845Z,14.10
2023-02-22T16:09:23.117Z,14.57
2023-02-22T16:11:31.069Z,14.43
2023-02-22T16:13:36.844Z,13.55
2023-02-22T16:15:40.029Z,14.63
2023-02-22T16:18:01.077Z,14.40
2023-02-22T16:20:34.008Z,14.70
2023-02-22T16:24:41.628Z,14.80
2023-02-22T16:27:04.528Z,14.82
2023-02-22T16:29:11.107Z,14.38
2023-02-22T16:31:14.769Z,15.25
2023-02-22T16:33:19.517Z,15.20
2023-02-22T16:35:28.464Z,15.63
2023-02-22T16:37:31.814Z,15.85
2023-02-22T16:39:36.152Z,14.70
2023-02-22T16:41:39.696Z,16.17
2023-02-22T16:43:46.298Z,14.75
2023-02-22T16:45:49.552Z,15.23
2023-02-22T16:47:53.800Z,15.45
2023-02-22T16:49:58.445Z,15.35
2023-02-22T16:52:03.376Z,15.60
2023-02-22T16:54:07.191Z,14.75
2023-02-22T16:56:13.062Z,15.52
2023-02-22T16:58:18.968Z,15.35
2023-02-22T17:00:31.337Z,15.05
2023-02-22T17:02:34.920Z,14.98
2023-02-22T17:04:40.388Z,15.52
2023-02-22T17:06:45.119Z,15.60
2023-02-22T17:08:51.987Z,15.43
2023-02-22T17:10:56.815Z,14.95
2023-02-22T17:13:12.742Z,15.18
2023-02-22T17:15:26.384Z,15.23
2023-02-22T17:17:29.587Z,15.93
2023-02-22T17:19:32.795Z,16.30
2023-02-22T17:21:35.999Z,16.67
2023-02-22T17:23:40.953Z,16.45
2023-02-22T17:25:46.274Z,17.10
2023-02-22T17:27:49.712Z,17.25
2023-02-22T17:29:53.133Z,17.33
2023-02-22T17:31:56.565Z,17.63
2023-02-22T17:34:02.965Z,17.38
2023-02-22T17:36:07.078Z,16.80
2023-02-22T17:38:10.263Z,17.50
2023-02-22T17:40:15.732Z,16.98
2023-02-22T17:42:19.243Z,17.02
2023-02-22T17:44:22.545Z,17.83
2023-02-22T17:46:26.278Z,17.88
2023-02-22T17:48:29.509Z,17.02
2023-02-22T17:50:32.854Z,17.10
2023-02-22T17:52:36.056Z,17.17
2023-02-22T17:54:39.266Z,17.73
2023-02-22T17:56:43.839Z,17.00
2023-02-22T17:58:47.420Z,16.20
2023-02-22T18:00:51.498Z,16.45
2023-02-22T18:02:54.770Z,17.05
2023-02-22T18:04:57.965Z,16.00
2023-02-22T18:07:01.266Z,16.58
2023-02-22T18:09:10.761Z,16.63
2023-02-22T18:11:14.286Z,16.80
2023-02-22T18:13:19.156Z,17.88
2023-02-22T18:15:22.418Z,16.63
2023-02-22T18:17:25.627Z,17.35
2023-02-22T18:19:29.276Z,16.55
2023-02-22T18:21:32.557Z,16.35
2023-02-22T18:23:35.786Z,16.15
2023-02-22T18:25:40.168Z,16.27
2023-02-22T18:27:44.327Z,16.08
2023-02-22T18:29:49.002Z,16.13
2023-02-22T18:31:53.741Z,17.20
2023-02-22T18:33:57.582Z,16.17
2023-02-22T18:36:00.834Z,16.05
2023-02-22T18:38:04.925Z,16.02
2023-02-22T18:40:10.690Z,16.05
2023-02-22T18:42:15.130Z,15.77
2023-02-22T18:44:19.397Z,15.68
2023-02-22T18:46:26.022Z,15.57
2023-02-22T18:48:29.191Z,16.40
2023-02-22T18:50:32.448Z,16.10
2023-02-22T18:52:44.811Z,15.15
2023-02-22T18:54:50.082Z,16.20
2023-02-22T18:56:53.226Z,15.30
2023-02-22T18:58:58.617Z,15.18
2023-02-22T19:01:02.246Z,15.20
2023-02-22T19:03:07.235Z,15.52
2023-02-22T19:05:11.116Z,15.32
2023-02-22T19:07:17.978Z,14.90
2023-02-22T19:09:21.325Z,15.48
2023-02-22T19:11:26.077Z,14.70
2023-02-22T19:13:29.314Z,15.38
2023-02-22T19:15:32.522Z,14.55
2023-02-22T19:17:36.635Z,14.88
2023-02-22T19:19:41.238Z,14.85
2023-02-22T19:21:44.485Z,15.00
2023-02-22T19:23:48.576Z,15.52
2023-02-22T19:25:52.336Z,15.45
2023-02-22T19:27:56.814Z,16.35
2023-02-22T19:30:00.407Z,15.27
2023-02-22T19:32:03.681Z,14.95
2023-02-22T19:34:08.986Z,16.48
2023-02-22T19:36:15.449Z,15.15
2023-02-22T19:38:19.672Z,16.13
2023-02-22T19:40:23.640Z,16.33
2023-02-22T19:42:26.978Z,14.50
2023-02-22T19:44:30.388Z,15.70
2023-02-22T19:46:34.359Z,16.42
2023-02-22T19:48:38.609Z,16.08
2023-02-22T19:50:48.969Z,16.17
2023-02-22T19:52:55.993Z,15.38
2023-02-22T19:55:00.003Z,16.17
2023-02-22T19:57:03.730Z,15.80
2023-02-22T19:59:13.437Z,16.25
2023-02-22T20:01:22.977Z,16.10
2023-02-22T20:03:27.020Z,16.77
2023-02-22T20:05:32.391Z,17.10
2023-02-22T20:07:35.589Z,17.15
2023-02-22T20:09:40.406Z,16.80
2023-02-22T20:11:43.710Z,17.13
2023-02-22T20:13:46.963Z,17.25
2023-02-22T20:15:50.865Z,17.33
2023-02-22T20:17:55.630Z,18.13
2023-02-22T20:19:58.848Z,17.77
2023-02-22T20:22:02.086Z,18.60
2023-02-22T20:24:08.551Z,17.63
2023-02-22T20:26:19.335Z,18.33
2023-02-22T20:28:22.965Z,18.13
2023-02-22T20:30:26.254Z,18.45
2023-02-22T20:32:31.853Z,17.95
2023-02-22T20:34:36.252Z,18.85
2023-02-22T20:36:41.429Z,19.08
2023-02-22T20:38:45.558Z,18.63
2023-02-22T20:40:48.931Z,18.15
2023-02-22T20:42:53.595Z,17.90
2023-02-22T20:45:01.722Z,18.00
2023-02-22T20:47:05.265Z,17.90
2023-02-22T20:49:11.158Z,18.77
2023-02-22T20:51:16.679Z,18.25
2023-02-22T20:53:20.354Z,18.23
2023-02-22T20:55:23.634Z,18.65
2023-02-22T20:57:26.949Z,20.63
2023-02-22T20:59:31.536Z,19.10
2023-02-22T21:01:34.844Z,19.52
2023-02-22T21:03:38.040Z,18.92
2023-02-22T21:05:43.757Z,18.05
2023-02-22T21:07:47.000Z,18.70
2023-02-22T21:09:50.528Z,18.52
2023-02-22T21:11:53.723Z,18.00
2023-02-22T21:13:57.316Z,19.25
2023-02-22T21:16:01.858Z,19.13
2023-02-22T21:18:06.040Z,18.45
2023-02-22T21:20:12.239Z,18.75
2023-02-22T21:22:15.619Z,17.92
2023-02-22T21:24:18.786Z,18.52
2023-02-22T21:26:24.566Z,18.25
2023-02-22T21:28:32.441Z,19.60
2023-02-22T21:30:46.660Z,18.33
2023-02-22T21:32:53.902Z,18.58
2023-02-22T21:34:57.087Z,17.95
2023-02-22T21:37:00.292Z,18.15
2023-02-22T21:39:08.478Z,18.08
2023-02-22T21:41:12.489Z,17.92
2023-02-22T21:43:16.708Z,18.08
2023-02-22T21:45:22.651Z,18.80
2023-02-22T21:47:27.675Z,18.05
2023-02-22T21:49:32.424Z,19.10
2023-02-22T21:51:37.741Z,18.88
2023-02-22T21:53:46.097Z,18.30
2023-02-22T21:55:49.518Z,19.20
2023-02-22T21:57:52.706Z,19.10
2023-02-22T21:59:55.963Z,18.65
2023-02-22T22:01:59.143Z,18.60
2023-02-22T22:04:03.416Z,18.95
2023-02-22T22:06:11.179Z,19.55
2023-02-22T22:08:19.509Z,18.98
2023-02-22T22:10:27.580Z,19.20
2023-02-22T22:12:38.797Z,18.52
2023-02-22T22:14:42.771Z,19.38
2023-02-22T22:16:47.990Z,20.23
2023-02-22T22:18:51.282Z,20.65
2023-02-22T22:20:56.035Z,18.92
2023-02-22T22:23:00.587Z,21.35
2023-02-22T22:25:10.334Z,20.00
2023-02-22T22:27:13.556Z,20.40
2023-02-22T22:29:16.896Z,20.13
2023-02-22T22:31:21.943Z,20.77
2023-02-22T22:33:25.440Z,22.10
2023-02-22T22:35:28.699Z,19.52
2023-02-22T22:37:32.359Z,21.25
2023-02-22T22:39:38.488Z,21.75
2023-02-22T22:41:42.106Z,22.08
2023-02-22T22:43:46.222Z,21.50
2023-02-22T22:45:49.402Z,21.92
2023-02-22T22:47:53.053Z,20.50
2023-02-22T22:50:01.446Z,20.90
2023-02-22T22:52:04.878Z,21.05
2023-02-22T22:54:09.535Z,21.73
2023-02-22T22:56:16.310Z,22.08
2023-02-22T22:58:19.655Z,20.85
2023-02-22T23:00:29.675Z,22.38
2023-02-22T23:02:32.858Z,21.58
2023-02-22T23:04:38.025Z,22.63
2023-02-22T23:06:43.053Z,23.00
2023-02-22T23:08:46.240Z,22.10
2023-02-22T23:10:49.423Z,22.58
2023-02-22T23:12:54.873Z,21.48
2023-02-22T23:14:58.467Z,21.88
2023-02-22T23:17:03.531Z,22.17
2023-02-22T23:19:08.749Z,22.10
2023-02-22T23:21:12.188Z,22.35
2023-02-22T23:23:15.402Z,22.20
2023-02-22T23:25:19.802Z,21.70
2023-02-22T23:27:23.734Z,21.40
2023-02-22T23:29:29.926Z,22.10
2023-02-22T23:31:33.493Z,23.30
2023-02-22T23:33:38.301Z,22.02
2023-02-22T23:35:42.494Z,22.95
2023-02-22T23:37:46.342Z,23.77
2023-02-22T23:39:50.965Z,22.10
2023-02-22T23:41:55.761Z,21.80
2023-02-22T23:44:00.039Z,22.92
2023-02-22T23:46:10.854Z,22.77
2023-02-22T23:48:14.096Z,23.48
2023-02-22T23:50:19.146Z,23.35
2023-02-22T23:52:24.633Z,23.10
2023-02-22T23:54:36.075Z,22.60
2023-02-22T23:58:47.052Z,22.30
